createdAt,value
2022-10-08T00:01:11.739Z,64.36
2022-10-08T00:03:40.839Z,64.48
2022-10-08T00:06:12.241Z,64.48
2022-10-08T00:08:41.374Z,64.42
2022-10-08T00:11:13.566Z,64.21
2022-10-08T00:13:41.265Z,64.36
2022-10-08T00:16:13.546Z,64.22
2022-10-08T00:18:41.670Z,64.19
2022-10-08T00:21:14.334Z,64.49
2022-10-08T00:23:42.357Z,64.47
2022-10-08T00:26:09.766Z,64.19
2022-10-08T00:28:37.889Z,64.30
2022-10-08T00:31:09.592Z,64.49
2022-10-08T00:33:37.177Z,64.46
2022-10-08T00:36:06.206Z,64.44
2022-10-08T00:38:33.813Z,64.10
2022-10-08T00:41:01.241Z,64.40
2022-10-08T00:43:46.697Z,64.29
2022-10-08T00:46:25.562Z,64.27
2022-10-08T00:49:16.908Z,64.20
2022-10-08T00:51:52.544Z,63.89
2022-10-08T00:54:20.319Z,63.87
2022-10-08T00:56:48.994Z,64.29
2022-10-08T00:59:16.896Z,64.04
2022-10-08T01:01:44.352Z,64.14
2022-10-08T01:04:12.404Z,63.88
2022-10-08T01:06:48.886Z,64.04
2022-10-08T01:09:23.615Z,64.14
2022-10-08T01:12:02.500Z,64.20
2022-10-08T01:14:35.809Z,64.26
2022-10-08T01:17:35.242Z,64.20
2022-10-08T01:20:38.359Z,64.03
2022-10-08T01:23:33.334Z,63.81
2022-10-08T01:26:07.417Z,63.60
2022-10-08T01:28:44.476Z,63.50
2022-10-08T01:31:21.789Z,63.53
2022-10-08T01:33:58.984Z,63.63
2022-10-08T01:36:27.828Z,63.73
2022-10-08T01:38:58.535Z,63.75
2022-10-08T01:41:26.309Z,64.06
2022-10-08T01:44:01.413Z,63.86
2022-10-08T01:46:29.423Z,63.80
2022-10-08T01:48:59.489Z,63.47
2022-10-08T01:51:35.043Z,63.36
2022-10-08T01:54:03.661Z,63.47
2022-10-08T01:56:32.123Z,63.81
2022-10-08T01:59:19.705Z,63.65
2022-10-08T02:01:56.799Z,63.46
2022-10-08T02:04:35.083Z,63.38
2022-10-08T02:07:05.783Z,63.54
2022-10-08T02:09:35.415Z,63.40
2022-10-08T02:12:02.831Z,63.56
2022-10-08T02:14:30.241Z,63.87
2022-10-08T02:17:18.706Z,63.97
2022-10-08T02:19:55.903Z,63.40
2022-10-08T02:22:26.924Z,63.67
2022-10-08T02:25:02.620Z,63.60
2022-10-08T02:27:43.205Z,63.55
2022-10-08T02:30:11.159Z,63.24
2022-10-08T02:32:51.536Z,63.67
2022-10-08T02:35:25.495Z,63.50
2022-10-08T02:37:57.482Z,63.24
2022-10-08T02:40:25.050Z,63.45
2022-10-08T02:42:55.244Z,63.57
2022-10-08T02:45:30.972Z,63.46
2022-10-08T02:48:05.256Z,63.19
2022-10-08T02:50:35.201Z,63.32
2022-10-08T02:53:05.469Z,63.46
2022-10-08T02:55:56.081Z,63.35
2022-10-08T02:58:23.507Z,63.51
2022-10-08T03:01:26.486Z,63.28
2022-10-08T03:04:18.087Z,63.29
2022-10-08T03:06:45.732Z,63.44
2022-10-08T03:09:13.329Z,63.28
2022-10-08T03:11:41.761Z,62.92
2022-10-08T03:14:10.224Z,62.83
2022-10-08T03:16:39.248Z,63.01
2022-10-08T03:19:10.426Z,62.99
2022-10-08T03:21:39.475Z,63.11
2022-10-08T03:24:07.792Z,62.92
2022-10-08T03:26:35.413Z,63.19
2022-10-08T03:29:03.082Z,63.29
2022-10-08T03:31:30.521Z,63.09
2022-10-08T03:34:01.255Z,63.02
2022-10-08T03:36:28.680Z,62.84
2022-10-08T03:38:56.073Z,63.28
2022-10-08T03:41:23.633Z,63.18
2022-10-08T03:43:51.017Z,62.82
2022-10-08T03:46:18.479Z,63.01
2022-10-08T03:48:48.457Z,63.06
2022-10-08T03:51:15.957Z,62.83
2022-10-08T03:53:43.630Z,63.05
2022-10-08T03:56:16.026Z,62.74
2022-10-08T03:58:46.752Z,63.15
2022-10-08T04:01:17.201Z,62.92
2022-10-08T04:03:45.412Z,62.74
2022-10-08T04:06:12.869Z,63.23
2022-10-08T04:08:40.437Z,63.02
2022-10-08T04:11:12.602Z,62.88
2022-10-08T04:13:41.185Z,63.14
2022-10-08T04:16:13.978Z,63.12
2022-10-08T04:18:41.490Z,62.94
2022-10-08T04:21:10.394Z,62.77
2022-10-08T04:23:38.725Z,62.90
2022-10-08T04:26:06.249Z,62.93
2022-10-08T04:28:38.283Z,62.68
2022-10-08T04:31:07.980Z,62.57
2022-10-08T04:33:35.577Z,62.63
2022-10-08T04:36:09.994Z,62.50
2022-10-08T04:38:37.231Z,62.31
2022-10-08T04:41:11.510Z,62.52
2022-10-08T04:43:39.002Z,62.23
2022-10-08T04:46:07.814Z,62.49
2022-10-08T04:48:35.217Z,62.74
2022-10-08T04:51:06.898Z,62.73
2022-10-08T04:53:36.891Z,62.69
2022-10-08T04:56:14.671Z,62.55
2022-10-08T04:58:42.124Z,62.56
2022-10-08T05:01:10.757Z,62.40
2022-10-08T05:03:38.816Z,62.53
2022-10-08T05:06:06.570Z,62.87
2022-10-08T05:08:34.205Z,62.84
2022-10-08T05:11:01.571Z,62.81
2022-10-08T05:13:28.921Z,62.70
2022-10-08T05:15:56.313Z,62.79
2022-10-08T05:18:23.757Z,62.49
2022-10-08T05:20:51.165Z,62.61
2022-10-08T05:23:18.496Z,63.00
2022-10-08T05:25:45.835Z,63.25
2022-10-08T05:28:13.263Z,63.08
2022-10-08T05:30:40.660Z,63.28
2022-10-08T05:33:08.047Z,63.29
2022-10-08T05:35:38.492Z,62.76
2022-10-08T05:38:05.840Z,62.77
2022-10-08T05:40:33.197Z,63.03
2022-10-08T05:43:00.572Z,62.75
2022-10-08T05:45:27.924Z,62.90
2022-10-08T05:47:55.863Z,63.13
2022-10-08T05:50:23.237Z,63.08
2022-10-08T05:52:50.681Z,63.17
2022-10-08T05:55:18.105Z,63.23
2022-10-08T05:57:48.278Z,62.94
2022-10-08T06:00:15.853Z,62.83
2022-10-08T06:02:43.261Z,62.85
2022-10-08T06:05:10.735Z,63.26
2022-10-08T06:07:38.132Z,63.42
2022-10-08T06:10:06.062Z,63.22
2022-10-08T06:12:36.143Z,63.21
2022-10-08T06:15:03.652Z,63.27
2022-10-08T06:17:31.161Z,63.31
2022-10-08T06:19:58.529Z,63.69
2022-10-08T06:22:25.910Z,63.59
2022-10-08T06:24:53.251Z,63.37
2022-10-08T06:27:23.510Z,63.35
2022-10-08T06:29:50.904Z,63.44
2022-10-08T06:32:18.318Z,63.30
2022-10-08T06:34:45.718Z,63.14
2022-10-08T06:37:13.109Z,63.30
2022-10-08T06:39:46.145Z,63.51
2022-10-08T06:42:15.579Z,63.36
2022-10-08T06:44:44.730Z,63.52
2022-10-08T06:47:12.134Z,63.51
2022-10-08T06:49:40.973Z,63.65
2022-10-08T06:52:08.384Z,63.78
2022-10-08T06:54:35.732Z,63.71
2022-10-08T06:57:03.080Z,63.86
2022-10-08T06:59:30.458Z,64.29
2022-10-08T07:01:57.831Z,64.06
2022-10-08T07:04:25.248Z,63.99
2022-10-08T07:06:52.854Z,64.19
2022-10-08T07:09:20.263Z,64.18
2022-10-08T07:11:47.627Z,64.36
2022-10-08T07:14:15.149Z,64.48
2022-10-08T07:16:42.568Z,64.32
2022-10-08T07:19:10.088Z,64.60
2022-10-08T07:21:37.607Z,64.47
2022-10-08T07:24:05.420Z,64.84
2022-10-08T07:26:34.254Z,65.04
2022-10-08T07:29:04.437Z,64.83
2022-10-08T07:31:33.609Z,66.33
2022-10-08T07:34:02.139Z,66.36
2022-10-08T07:36:29.667Z,66.81
2022-10-08T07:38:58.700Z,66.85
2022-10-08T07:41:26.308Z,66.94
2022-10-08T07:43:54.482Z,66.79
2022-10-08T07:46:21.900Z,67.02
2022-10-08T07:48:50.753Z,67.00
2022-10-08T07:51:19.422Z,66.69
2022-10-08T07:53:46.890Z,66.28
2022-10-08T07:56:16.250Z,66.52
2022-10-08T07:58:43.648Z,66.61
2022-10-08T08:01:12.594Z,66.76
2022-10-08T08:03:40.098Z,66.69
2022-10-08T08:06:14.859Z,66.65
2022-10-08T08:08:43.685Z,66.89
2022-10-08T08:11:12.100Z,67.05
2022-10-08T08:13:39.892Z,65.89
2022-10-08T08:16:12.273Z,67.06
2022-10-08T08:18:41.639Z,66.81
2022-10-08T08:21:16.141Z,66.57
2022-10-08T08:23:44.967Z,67.26
2022-10-08T08:26:14.064Z,66.85
2022-10-08T08:28:41.638Z,66.63
2022-10-08T08:31:16.693Z,67.09
2022-10-08T08:33:47.169Z,66.78
2022-10-08T08:36:14.572Z,66.97
2022-10-08T08:38:41.924Z,67.60
2022-10-08T08:41:33.839Z,67.62
2022-10-08T08:44:12.892Z,66.81
2022-10-08T08:46:42.217Z,66.67
2022-10-08T08:49:24.125Z,66.25
2022-10-08T08:51:52.282Z,67.09
2022-10-08T08:54:20.182Z,67.24
2022-10-08T08:56:47.632Z,66.62
2022-10-08T08:59:35.082Z,66.04
2022-10-08T09:02:05.662Z,66.47
2022-10-08T09:04:44.285Z,66.33
2022-10-08T09:07:17.930Z,66.15
2022-10-08T09:09:50.515Z,66.62
2022-10-08T09:12:27.282Z,65.94
2022-10-08T09:14:56.225Z,66.87
2022-10-08T09:17:38.987Z,66.47
2022-10-08T09:20:06.551Z,66.70
2022-10-08T09:22:40.204Z,67.07
2022-10-08T09:25:13.089Z,66.22
2022-10-08T09:27:53.520Z,66.63
2022-10-08T09:30:39.916Z,66.53
2022-10-08T09:33:14.117Z,66.77
2022-10-08T09:35:49.199Z,66.51
2022-10-08T09:38:27.220Z,66.82
2022-10-08T09:41:02.064Z,66.69
2022-10-08T09:43:29.796Z,66.97
2022-10-08T09:45:58.219Z,67.00
2022-10-08T09:48:30.021Z,67.13
2022-10-08T09:51:05.381Z,67.07
2022-10-08T09:53:40.393Z,67.09
2022-10-08T09:56:07.930Z,67.08
2022-10-08T09:58:59.523Z,67.12
2022-10-08T10:01:27.064Z,66.67
2022-10-08T10:03:56.069Z,66.91
2022-10-08T10:06:37.288Z,66.99
2022-10-08T10:09:10.769Z,67.01
2022-10-08T10:11:49.549Z,67.09
2022-10-08T10:14:44.617Z,66.79
2022-10-08T10:17:40.305Z,66.93
2022-10-08T10:20:14.775Z,66.76
2022-10-08T10:22:51.170Z,66.39
2022-10-08T10:25:32.715Z,66.53
2022-10-08T10:28:03.353Z,66.21
2022-10-08T10:30:30.811Z,66.44
2022-10-08T10:33:28.972Z,66.96
2022-10-08T10:35:57.547Z,66.86
2022-10-08T10:38:27.740Z,66.95
2022-10-08T10:41:15.275Z,67.35
2022-10-08T10:43:51.413Z,66.54
2022-10-08T10:46:35.698Z,66.98
2022-10-08T10:49:03.092Z,66.58
2022-10-08T10:51:51.674Z,67.12
2022-10-08T10:54:28.396Z,67.27
2022-10-08T10:57:03.377Z,67.11
2022-10-08T10:59:48.015Z,67.15
2022-10-08T11:02:31.546Z,67.06
2022-10-08T11:05:37.153Z,67.64
2022-10-08T11:08:30.534Z,67.85
2022-10-08T11:11:27.657Z,67.69
2022-10-08T11:14:07.091Z,67.07
2022-10-08T11:16:56.521Z,66.98
2022-10-08T11:19:36.931Z,66.85
2022-10-08T11:22:20.334Z,66.76
2022-10-08T11:24:50.844Z,66.85
2022-10-08T11:27:45.823Z,66.86
2022-10-08T11:30:14.799Z,66.92
2022-10-08T11:32:43.919Z,66.68
2022-10-08T11:35:29.455Z,67.01
2022-10-08T11:38:05.865Z,67.06
2022-10-08T11:40:52.911Z,66.82
2022-10-08T11:43:29.896Z,67.06
2022-10-08T11:46:33.314Z,66.67
2022-10-08T11:49:01.893Z,66.71
2022-10-08T11:51:31.262Z,66.70
2022-10-08T11:54:20.359Z,66.63
2022-10-08T11:56:52.135Z,66.75
2022-10-08T11:59:39.540Z,66.94
2022-10-08T12:02:21.442Z,66.66
2022-10-08T12:04:48.988Z,66.72
2022-10-08T12:07:33.178Z,66.78
2022-10-08T12:10:06.426Z,67.03
2022-10-08T12:12:49.132Z,67.18
2022-10-08T12:15:30.331Z,67.06
2022-10-08T12:17:58.682Z,66.81
2022-10-08T12:20:27.603Z,67.05
2022-10-08T12:23:02.008Z,66.84
2022-10-08T12:25:35.076Z,67.03
2022-10-08T12:28:20.753Z,66.93
2022-10-08T12:30:56.070Z,67.10
2022-10-08T12:33:24.638Z,66.83
2022-10-08T12:36:01.179Z,67.14
2022-10-08T12:38:45.244Z,66.80
2022-10-08T12:41:21.031Z,67.09
2022-10-08T12:44:07.045Z,66.88
2022-10-08T12:46:49.387Z,67.34
2022-10-08T12:49:35.961Z,67.27
2022-10-08T12:52:04.008Z,67.23
2022-10-08T12:54:32.749Z,67.28
2022-10-08T12:57:00.407Z,67.56
2022-10-08T12:59:31.481Z,67.66
2022-10-08T13:01:59.150Z,67.45
2022-10-08T13:04:32.406Z,67.65
2022-10-08T13:06:59.822Z,67.41
2022-10-08T13:09:34.658Z,67.44
2022-10-08T13:12:04.090Z,67.57
2022-10-08T13:14:37.578Z,67.52
2022-10-08T13:17:05.160Z,67.32
2022-10-08T13:19:33.659Z,67.47
2022-10-08T13:22:08.794Z,67.83
2022-10-08T13:24:42.932Z,67.83
2022-10-08T13:27:24.694Z,67.81
2022-10-08T13:29:52.351Z,67.81
2022-10-08T13:32:20.877Z,67.80
2022-10-08T13:34:50.785Z,67.73
2022-10-08T13:37:31.812Z,68.15
2022-10-08T13:40:11.839Z,68.07
2022-10-08T13:42:40.788Z,67.96
2022-10-08T13:45:17.857Z,68.19
2022-10-08T13:47:45.780Z,68.30
2022-10-08T13:50:13.723Z,68.20
2022-10-08T13:52:43.394Z,68.10
2022-10-08T13:55:26.752Z,68.38
2022-10-08T13:57:59.950Z,68.20
2022-10-08T14:00:27.901Z,68.47
2022-10-08T14:02:55.303Z,68.55
2022-10-08T14:05:22.794Z,68.57
2022-10-08T14:07:52.456Z,68.19
2022-10-08T14:10:19.984Z,68.24
2022-10-08T14:12:47.370Z,68.20
2022-10-08T14:15:15.247Z,68.29
2022-10-08T14:17:42.679Z,68.58
2022-10-08T14:20:10.593Z,68.25
2022-10-08T14:22:41.118Z,68.28
2022-10-08T14:25:20.168Z,68.46
2022-10-08T14:27:47.884Z,68.58
2022-10-08T14:30:15.792Z,68.39
2022-10-08T14:32:43.119Z,68.76
2022-10-08T14:35:10.947Z,68.60
2022-10-08T14:37:38.533Z,68.79
2022-10-08T14:40:06.784Z,68.69
2022-10-08T14:42:34.184Z,68.92
2022-10-08T14:45:01.556Z,68.78
2022-10-08T14:47:29.171Z,68.65
2022-10-08T14:49:56.613Z,68.64
2022-10-08T14:52:24.136Z,68.69
2022-10-08T14:54:51.522Z,68.98
2022-10-08T14:57:18.894Z,68.86
2022-10-08T14:59:46.263Z,68.68
2022-10-08T15:02:14.089Z,68.66
2022-10-08T15:04:41.524Z,68.63
2022-10-08T15:07:11.308Z,68.87
2022-10-08T15:09:40.552Z,68.66
2022-10-08T15:12:08.123Z,68.45
2022-10-08T15:14:38.225Z,68.52
2022-10-08T15:17:05.937Z,68.32
2022-10-08T15:19:33.280Z,68.91
2022-10-08T15:22:00.692Z,68.73
2022-10-08T15:24:28.043Z,68.86
2022-10-08T15:26:55.550Z,68.82
2022-10-08T15:29:22.962Z,69.15
2022-10-08T15:31:51.253Z,68.97
2022-10-08T15:34:19.561Z,68.86
2022-10-08T15:36:47.012Z,69.34
2022-10-08T15:39:18.333Z,69.15
2022-10-08T15:41:47.720Z,69.21
2022-10-08T15:44:25.767Z,69.32
2022-10-08T15:47:02.018Z,69.24
2022-10-08T15:49:32.993Z,69.07
2022-10-08T15:52:00.431Z,68.93
2022-10-08T15:54:27.823Z,69.29
2022-10-08T15:56:55.259Z,68.82
2022-10-08T15:59:22.656Z,69.23
2022-10-08T16:01:50.099Z,68.92
2022-10-08T16:04:17.472Z,69.11
2022-10-08T16:06:45.537Z,69.26
2022-10-08T16:09:14.042Z,69.37
2022-10-08T16:11:41.777Z,69.41
2022-10-08T16:14:12.674Z,69.43
2022-10-08T16:16:40.289Z,69.23
2022-10-08T16:19:11.011Z,69.27
2022-10-08T16:21:39.771Z,69.14
2022-10-08T16:24:07.246Z,69.46
2022-10-08T16:26:36.533Z,69.25
2022-10-08T16:29:05.557Z,69.27
2022-10-08T16:31:33.958Z,68.87
2022-10-08T16:34:06.042Z,68.88
2022-10-08T16:36:34.784Z,68.90
2022-10-08T16:39:03.648Z,68.80
2022-10-08T16:41:32.275Z,68.94
2022-10-08T16:44:03.106Z,68.83
2022-10-08T16:46:31.998Z,68.35
2022-10-08T16:49:01.093Z,68.75
2022-10-08T16:51:33.936Z,68.51
2022-10-08T16:54:01.554Z,68.23
2022-10-08T16:56:30.765Z,68.21
2022-10-08T16:59:00.024Z,68.54
2022-10-08T17:01:27.529Z,67.75
2022-10-08T17:03:55.016Z,68.52
2022-10-08T17:06:22.912Z,68.58
2022-10-08T17:08:50.909Z,68.01
2022-10-08T17:11:18.290Z,68.20
2022-10-08T17:13:47.138Z,68.09
2022-10-08T17:16:14.753Z,68.19
2022-10-08T17:18:44.310Z,67.30
2022-10-08T17:21:12.297Z,68.10
2022-10-08T17:23:39.769Z,67.67
2022-10-08T17:26:09.469Z,68.49
2022-10-08T17:28:38.804Z,65.99
2022-10-08T17:31:07.323Z,67.25
2022-10-08T17:33:36.091Z,68.67
2022-10-08T17:36:10.187Z,68.55
2022-10-08T17:38:40.446Z,66.49
2022-10-08T17:41:17.297Z,66.99
2022-10-08T17:43:45.068Z,66.40
2022-10-08T17:46:26.093Z,66.07
2022-10-08T17:48:53.899Z,67.50
2022-10-08T17:51:40.017Z,67.45
2022-10-08T17:54:08.600Z,67.46
2022-10-08T17:56:36.041Z,67.02
2022-10-08T17:59:03.747Z,66.63
2022-10-08T18:01:32.820Z,68.30
2022-10-08T18:04:02.100Z,67.15
2022-10-08T18:06:29.984Z,67.88
2022-10-08T18:09:01.359Z,68.04
2022-10-08T18:11:29.580Z,67.11
2022-10-08T18:13:56.982Z,68.45
2022-10-08T18:16:25.393Z,66.68
2022-10-08T18:18:52.717Z,68.43
2022-10-08T18:21:20.178Z,68.70
2022-10-08T18:23:48.182Z,68.13
2022-10-08T18:26:22.034Z,68.48
2022-10-08T18:28:51.096Z,68.71
2022-10-08T18:31:18.858Z,68.67
2022-10-08T18:33:47.184Z,67.94
2022-10-08T18:36:24.477Z,68.55
2022-10-08T18:38:59.340Z,67.25
2022-10-08T18:41:35.414Z,67.92
2022-10-08T18:44:05.218Z,67.50
2022-10-08T18:46:33.894Z,68.82
2022-10-08T18:49:01.436Z,67.74
2022-10-08T18:51:29.156Z,68.37
2022-10-08T18:53:57.348Z,69.00
2022-10-08T18:56:29.352Z,69.79
2022-10-08T18:58:59.786Z,67.70
2022-10-08T19:01:31.899Z,68.43
2022-10-08T19:04:00.245Z,68.89
2022-10-08T19:06:31.268Z,68.59
2022-10-08T19:08:59.055Z,68.74
2022-10-08T19:11:30.125Z,69.42
2022-10-08T19:13:57.484Z,68.60
2022-10-08T19:16:24.939Z,68.02
2022-10-08T19:19:05.364Z,68.42
2022-10-08T19:21:33.459Z,67.70
2022-10-08T19:24:00.946Z,67.46
2022-10-08T19:26:28.833Z,67.70
2022-10-08T19:28:56.401Z,68.24
2022-10-08T19:31:25.006Z,67.17
2022-10-08T19:33:58.736Z,69.21
2022-10-08T19:36:28.609Z,67.88
2022-10-08T19:38:57.453Z,67.05
2022-10-08T19:41:25.214Z,67.15
2022-10-08T19:43:52.835Z,67.87
2022-10-08T19:46:20.468Z,68.63
2022-10-08T19:48:49.669Z,67.60
2022-10-08T19:51:17.034Z,67.23
2022-10-08T19:53:44.435Z,67.02
2022-10-08T19:56:12.033Z,65.83
2022-10-08T19:58:39.961Z,66.93
2022-10-08T20:01:09.333Z,66.74
2022-10-08T20:03:36.929Z,67.35
2022-10-08T20:06:05.538Z,66.32
2022-10-08T20:08:33.345Z,67.04
2022-10-08T20:11:05.171Z,66.58
2022-10-08T20:13:32.715Z,66.94
2022-10-08T20:16:11.061Z,66.99
2022-10-08T20:18:38.628Z,66.63
2022-10-08T20:21:07.846Z,67.48
2022-10-08T20:23:35.460Z,66.83
2022-10-08T20:26:15.976Z,66.75
2022-10-08T20:28:44.462Z,66.66
2022-10-08T20:31:13.734Z,66.68
2022-10-08T20:33:41.787Z,66.22
2022-10-08T20:36:10.173Z,66.33
2022-10-08T20:38:37.776Z,65.97
2022-10-08T20:41:05.572Z,66.30
2022-10-08T20:43:33.595Z,66.43
2022-10-08T20:46:02.553Z,66.34
2022-10-08T20:48:33.567Z,65.87
2022-10-08T20:51:05.225Z,66.15
2022-10-08T20:53:32.911Z,65.61
2022-10-08T20:56:09.993Z,66.08
2022-10-08T20:58:37.539Z,65.82
2022-10-08T21:01:19.348Z,65.50
2022-10-08T21:03:47.418Z,65.51
2022-10-08T21:06:22.299Z,65.77
2022-10-08T21:08:50.531Z,66.20
2022-10-08T21:11:19.246Z,66.15
2022-10-08T21:13:46.669Z,66.28
2022-10-08T21:16:15.972Z,65.96
2022-10-08T21:18:43.728Z,65.89
2022-10-08T21:21:12.668Z,66.19
2022-10-08T21:23:40.333Z,66.40
2022-10-08T21:26:13.233Z,66.83
2022-10-08T21:28:41.441Z,67.30
2022-10-08T21:31:08.992Z,67.08
2022-10-08T21:33:37.186Z,67.12
2022-10-08T21:36:05.795Z,67.08
2022-10-08T21:38:33.527Z,67.28
2022-10-08T21:41:11.702Z,66.99
2022-10-08T21:43:39.475Z,67.14
2022-10-08T21:46:07.084Z,67.22
2022-10-08T21:48:34.572Z,67.05
2022-10-08T21:51:03.764Z,67.01
2022-10-08T21:53:32.065Z,66.87
2022-10-08T21:56:01.024Z,67.05
2022-10-08T21:58:28.639Z,66.71
2022-10-08T22:00:56.152Z,66.95
2022-10-08T22:03:23.715Z,66.91
2022-10-08T22:05:51.003Z,66.99
2022-10-08T22:08:18.381Z,67.10
2022-10-08T22:10:45.718Z,67.17
2022-10-08T22:13:13.101Z,67.10
2022-10-08T22:15:40.865Z,67.24
2022-10-08T22:18:08.201Z,67.19
2022-10-08T22:20:36.526Z,67.30
2022-10-08T22:23:04.003Z,67.43
2022-10-08T22:25:31.322Z,67.39
2022-10-08T22:27:58.658Z,67.27
2022-10-08T22:30:26.089Z,67.49
2022-10-08T22:32:54.569Z,67.71
2022-10-08T22:35:21.879Z,67.14
2022-10-08T22:37:51.732Z,66.92
2022-10-08T22:40:19.067Z,67.38
2022-10-08T22:42:46.642Z,67.38
2022-10-08T22:45:14.286Z,67.35
2022-10-08T22:47:41.662Z,67.70
2022-10-08T22:50:09.594Z,67.73
2022-10-08T22:52:36.970Z,68.34
2022-10-08T22:55:04.537Z,67.69
2022-10-08T22:57:31.973Z,68.08
2022-10-08T22:59:59.320Z,67.77
2022-10-08T23:02:26.727Z,67.64
2022-10-08T23:04:54.154Z,67.89
2022-10-08T23:07:21.517Z,67.79
2022-10-08T23:09:48.856Z,68.48
2022-10-08T23:12:16.239Z,68.34
2022-10-08T23:14:43.595Z,68.19
2022-10-08T23:17:10.956Z,68.12
2022-10-08T23:19:38.401Z,68.24
2022-10-08T23:22:05.806Z,67.82
2022-10-08T23:24:33.973Z,67.94
2022-10-08T23:27:01.292Z,68.16
2022-10-08T23:29:28.615Z,68.62
2022-10-08T23:31:55.980Z,68.81
2022-10-08T23:34:23.376Z,68.46
2022-10-08T23:36:50.792Z,68.24
2022-10-08T23:39:19.818Z,68.23
2022-10-08T23:41:47.205Z,68.59
2022-10-08T23:44:14.533Z,68.27
2022-10-08T23:46:41.847Z,67.99
2022-10-08T23:49:09.331Z,68.07
2022-10-08T23:51:36.735Z,68.32
2022-10-08T23:54:04.054Z,68.21
2022-10-08T23:56:31.419Z,68.19
2022-10-08T23:58:58.792Z,68.21
